createdAt,value
2023-04-03T00:00:44.582Z,69.21
2023-04-03T00:03:12.157Z,70.06
2023-04-03T00:05:39.362Z,71.13
2023-04-03T00:08:08.921Z,71.59
2023-04-03T00:10:37.939Z,71.47
2023-04-03T00:13:06.375Z,71.98
2023-04-03T00:15:33.859Z,72.00
2023-04-03T00:18:02.339Z,71.46
2023-04-03T00:20:29.707Z,71.55
2023-04-03T00:22:56.928Z,72.08
2023-04-03T00:25:24.722Z,72.05
2023-04-03T00:27:51.949Z,71.05
2023-04-03T00:30:21.226Z,69.69
2023-04-03T00:32:50.198Z,69.22
2023-04-03T00:35:18.125Z,70.01
2023-04-03T00:37:46.026Z,68.78
2023-04-03T00:40:15.372Z,68.70
2023-04-03T00:42:43.732Z,68.36
2023-04-03T00:45:16.700Z,68.12
2023-04-03T00:47:44.458Z,68.60
2023-04-03T00:50:11.955Z,68.78
2023-04-03T00:52:40.040Z,67.92
2023-04-03T00:55:09.680Z,68.06
2023-04-03T00:57:37.440Z,67.74
2023-04-03T01:00:10.958Z,68.19
2023-04-03T01:02:38.481Z,68.22
2023-04-03T01:05:07.228Z,68.22
2023-04-03T01:07:38.189Z,68.81
2023-04-03T01:10:10.516Z,68.16
2023-04-03T01:12:39.828Z,68.20
2023-04-03T01:15:16.860Z,68.14
2023-04-03T01:17:45.679Z,67.70
2023-04-03T01:20:22.749Z,67.76
2023-04-03T01:23:14.372Z,67.58
2023-04-03T01:25:47.415Z,67.13
2023-04-03T01:28:24.338Z,66.64
2023-04-03T01:31:16.338Z,66.41
2023-04-03T01:33:44.543Z,67.12
2023-04-03T01:36:26.652Z,68.04
2023-04-03T01:38:55.412Z,67.67
2023-04-03T01:41:23.706Z,67.66
2023-04-03T01:43:51.436Z,67.41
2023-04-03T01:46:19.380Z,67.18
2023-04-03T01:48:47.015Z,67.17
2023-04-03T01:51:14.173Z,68.19
2023-04-03T01:53:41.327Z,66.96
2023-04-03T01:56:09.277Z,67.12
2023-04-03T01:58:36.415Z,67.01
2023-04-03T02:01:04.314Z,67.16
2023-04-03T02:03:31.985Z,66.99
2023-04-03T02:05:59.478Z,67.43
2023-04-03T02:08:27.060Z,67.45
2023-04-03T02:10:54.500Z,67.03
2023-04-03T02:13:21.620Z,67.44
2023-04-03T02:15:48.790Z,67.88
2023-04-03T02:18:17.363Z,67.05
2023-04-03T02:20:44.524Z,67.41
2023-04-03T02:23:11.971Z,68.04
2023-04-03T02:25:39.363Z,67.73
2023-04-03T02:28:06.880Z,68.34
2023-04-03T02:30:34.240Z,68.00
2023-04-03T02:33:01.811Z,67.89
2023-04-03T02:35:29.313Z,67.58
2023-04-03T02:37:57.020Z,67.74
2023-04-03T02:40:24.832Z,67.67
2023-04-03T02:42:51.960Z,69.25
2023-04-03T02:45:19.392Z,69.12
2023-04-03T02:47:46.861Z,69.91
2023-04-03T02:50:14.168Z,70.34
2023-04-03T02:52:41.938Z,70.20
2023-04-03T02:55:09.767Z,69.45
2023-04-03T02:57:37.063Z,69.63
2023-04-03T03:00:04.888Z,69.81
2023-04-03T03:02:32.618Z,70.57
2023-04-03T03:04:59.875Z,71.05
2023-04-03T03:07:27.191Z,70.76
2023-04-03T03:09:54.720Z,70.25
2023-04-03T03:12:22.807Z,70.98
2023-04-03T03:14:50.658Z,70.39
2023-04-03T03:17:18.332Z,70.56
2023-04-03T03:19:46.814Z,70.58
2023-04-03T03:22:14.017Z,70.36
2023-04-03T03:24:41.497Z,70.79
2023-04-03T03:27:09.872Z,70.80
2023-04-03T03:29:37.172Z,71.48
2023-04-03T03:32:05.574Z,72.08
2023-04-03T03:34:32.798Z,71.27
2023-04-03T03:37:00.382Z,71.66
2023-04-03T03:39:29.230Z,71.85
2023-04-03T03:41:57.605Z,71.57
2023-04-03T03:44:24.927Z,71.76
2023-04-03T03:46:53.667Z,72.67
2023-04-03T03:49:20.920Z,72.02
2023-04-03T03:51:48.271Z,71.79
2023-04-03T03:54:15.738Z,72.19
2023-04-03T03:56:42.884Z,72.31
2023-04-03T03:59:12.924Z,72.31
2023-04-03T04:01:41.043Z,72.37
2023-04-03T04:04:08.973Z,73.30
2023-04-03T04:06:36.798Z,71.88
2023-04-03T04:09:04.394Z,71.96
2023-04-03T04:11:33.462Z,72.75
2023-04-03T04:14:01.081Z,72.59
2023-04-03T04:16:29.296Z,72.06
2023-04-03T04:18:57.257Z,71.80
2023-04-03T04:21:24.871Z,72.83
2023-04-03T04:23:52.486Z,73.47
2023-04-03T04:26:21.231Z,73.66
2023-04-03T04:28:48.577Z,73.12
2023-04-03T04:31:17.511Z,74.34
2023-04-03T04:33:44.995Z,75.02
2023-04-03T04:36:12.517Z,76.47
2023-04-03T04:38:39.938Z,75.52
2023-04-03T04:41:07.904Z,75.27
2023-04-03T04:43:35.671Z,75.50
2023-04-03T04:46:08.280Z,76.04
2023-04-03T04:48:36.949Z,76.76
2023-04-03T04:51:04.709Z,76.62
2023-04-03T04:53:32.111Z,76.45
2023-04-03T04:55:59.914Z,76.53
2023-04-03T04:58:27.414Z,76.86
2023-04-03T05:01:02.104Z,76.79
2023-04-03T05:03:30.628Z,76.75
2023-04-03T05:05:58.597Z,76.67
2023-04-03T05:08:26.252Z,77.15
2023-04-03T05:10:56.016Z,77.22
2023-04-03T05:13:25.170Z,77.82
2023-04-03T05:15:52.535Z,77.54
2023-04-03T05:18:20.423Z,77.63
2023-04-03T05:20:50.432Z,77.84
2023-04-03T05:23:18.794Z,77.66
2023-04-03T05:25:47.988Z,77.16
2023-04-03T05:28:15.799Z,76.98
2023-04-03T05:30:43.053Z,75.58
2023-04-03T05:33:10.594Z,75.86
2023-04-03T05:35:42.508Z,75.04
2023-04-03T05:38:11.129Z,76.18
2023-04-03T05:40:39.194Z,76.34
2023-04-03T05:43:06.948Z,77.36
2023-04-03T05:45:35.536Z,76.24
2023-04-03T05:48:02.901Z,76.08
2023-04-03T05:50:31.239Z,75.45
2023-04-03T05:53:00.241Z,76.18
2023-04-03T05:55:27.850Z,76.72
2023-04-03T05:57:55.599Z,75.88
2023-04-03T06:00:23.566Z,76.58
2023-04-03T06:02:52.816Z,76.29
2023-04-03T06:05:20.947Z,76.71
2023-04-03T06:07:50.462Z,75.71
2023-04-03T06:10:18.536Z,76.63
2023-04-03T06:12:46.271Z,76.03
2023-04-03T06:15:14.456Z,75.57
2023-04-03T06:17:41.980Z,76.80
2023-04-03T06:20:10.388Z,75.26
2023-04-03T06:22:37.895Z,75.68
2023-04-03T06:25:06.086Z,75.18
2023-04-03T06:27:33.196Z,74.72
2023-04-03T06:30:00.344Z,74.41
2023-04-03T06:32:27.864Z,74.34
2023-04-03T06:34:55.053Z,74.33
2023-04-03T06:37:23.961Z,72.59
2023-04-03T06:39:51.584Z,73.75
2023-04-03T06:42:19.158Z,76.79
2023-04-03T06:44:46.428Z,71.77
2023-04-03T06:47:15.282Z,72.29
2023-04-03T06:49:42.686Z,74.16
2023-04-03T06:52:10.858Z,71.15
2023-04-03T06:54:38.783Z,71.70
2023-04-03T06:57:06.427Z,71.29
2023-04-03T06:59:33.816Z,71.65
2023-04-03T07:02:01.632Z,68.89
2023-04-03T07:04:28.858Z,68.67
2023-04-03T07:06:56.012Z,70.01
2023-04-03T07:09:23.536Z,69.92
2023-04-03T07:11:50.686Z,69.15
2023-04-03T07:14:17.836Z,69.51
2023-04-03T07:16:45.386Z,68.87
2023-04-03T07:19:12.820Z,68.70
2023-04-03T07:21:40.094Z,67.89
2023-04-03T07:24:08.957Z,68.61
2023-04-03T07:26:38.584Z,68.97
2023-04-03T07:29:05.725Z,68.00
2023-04-03T07:31:33.123Z,68.15
2023-04-03T07:34:00.202Z,67.68
2023-04-03T07:36:27.293Z,67.09
2023-04-03T07:38:54.693Z,67.11
2023-04-03T07:41:22.147Z,66.13
2023-04-03T07:43:50.811Z,65.93
2023-04-03T07:46:18.691Z,65.31
2023-04-03T07:48:46.163Z,67.03
2023-04-03T07:51:14.062Z,65.16
2023-04-03T07:53:41.956Z,66.11
2023-04-03T07:56:10.415Z,63.34
2023-04-03T07:58:38.082Z,62.96
2023-04-03T08:01:05.535Z,61.98
2023-04-03T08:03:33.326Z,62.31
2023-04-03T08:06:06.186Z,61.40
2023-04-03T08:08:36.374Z,60.91
2023-04-03T08:11:03.867Z,60.43
2023-04-03T08:13:31.856Z,60.26
2023-04-03T08:16:00.197Z,61.37
2023-04-03T08:18:27.759Z,58.67
2023-04-03T08:20:54.861Z,59.27
2023-04-03T08:23:22.324Z,57.86
2023-04-03T08:25:49.478Z,59.64
2023-04-03T08:28:16.628Z,57.65
2023-04-03T08:30:44.731Z,60.56
2023-04-03T08:33:11.899Z,57.31
2023-04-03T08:35:41.736Z,58.07
2023-04-03T08:38:10.444Z,56.19
2023-04-03T08:40:38.069Z,57.86
2023-04-03T08:43:26.146Z,56.33
2023-04-03T08:45:56.554Z,56.87
2023-04-03T08:48:37.807Z,56.57
2023-04-03T08:51:13.860Z,56.86
2023-04-03T08:53:43.395Z,56.27
2023-04-03T08:56:11.365Z,56.01
2023-04-03T08:58:53.781Z,57.47
2023-04-03T09:01:26.008Z,56.60
2023-04-03T09:03:53.239Z,55.77
2023-04-03T09:06:23.512Z,55.46
2023-04-03T09:09:16.847Z,56.78
2023-04-03T09:12:10.976Z,54.50
2023-04-03T09:14:46.998Z,54.77
2023-04-03T09:17:42.701Z,54.81
2023-04-03T09:20:13.008Z,54.50
2023-04-03T09:22:51.404Z,57.24
2023-04-03T09:25:36.924Z,60.06
2023-04-03T09:28:04.606Z,64.55
2023-04-03T09:30:31.895Z,52.53
2023-04-03T09:32:59.634Z,55.08
2023-04-03T09:35:44.807Z,51.26
2023-04-03T09:38:14.414Z,50.11
2023-04-03T09:41:03.764Z,54.84
2023-04-03T09:43:33.073Z,49.88
2023-04-03T09:46:27.574Z,54.14
2023-04-03T09:49:09.340Z,53.45
2023-04-03T09:51:37.880Z,56.24
2023-04-03T09:54:31.607Z,54.17
2023-04-03T09:57:05.244Z,56.75
2023-04-03T09:59:32.864Z,49.52
2023-04-03T10:02:12.394Z,52.37
2023-04-03T10:04:41.652Z,56.62
2023-04-03T10:07:54.496Z,48.33
2023-04-03T10:10:26.868Z,45.99
2023-04-03T10:13:20.690Z,45.48
2023-04-03T10:15:51.519Z,46.53
2023-04-03T10:18:29.586Z,48.20
2023-04-03T10:21:03.635Z,52.09
2023-04-03T10:23:36.826Z,51.18
2023-04-03T10:26:14.705Z,50.37
2023-04-03T10:29:23.077Z,51.61
2023-04-03T10:32:04.224Z,50.28
2023-04-03T10:34:38.327Z,48.45
2023-04-03T10:37:19.817Z,43.61
2023-04-03T10:40:03.630Z,46.88
2023-04-03T10:42:45.842Z,43.71
2023-04-03T10:45:42.610Z,48.16
2023-04-03T10:48:24.201Z,45.42
2023-04-03T10:51:16.217Z,43.52
2023-04-03T10:54:12.825Z,45.09
2023-04-03T10:56:43.163Z,46.82
2023-04-03T10:59:13.788Z,45.34
2023-04-03T11:01:43.664Z,47.11
2023-04-03T11:04:12.609Z,46.51
2023-04-03T11:06:49.501Z,46.30
2023-04-03T11:09:29.894Z,48.33
2023-04-03T11:12:02.849Z,45.79
2023-04-03T11:14:33.105Z,45.76
2023-04-03T11:17:24.422Z,45.97
2023-04-03T11:20:01.563Z,45.58
2023-04-03T11:22:39.547Z,45.36
2023-04-03T11:25:20.980Z,47.92
2023-04-03T11:27:57.667Z,47.33
2023-04-03T11:30:40.372Z,48.46
2023-04-03T11:33:20.845Z,46.94
2023-04-03T11:35:52.240Z,45.97
2023-04-03T11:38:27.598Z,46.12
2023-04-03T11:40:56.489Z,46.52
2023-04-03T11:43:23.644Z,46.51
2023-04-03T11:45:55.969Z,46.75
2023-04-03T11:48:29.541Z,46.61
2023-04-03T11:50:57.745Z,47.11
2023-04-03T11:53:38.567Z,47.82
2023-04-03T11:56:24.367Z,47.53
2023-04-03T11:59:11.717Z,46.18
2023-04-03T12:01:48.835Z,46.75
2023-04-03T12:04:18.794Z,45.85
2023-04-03T12:06:46.104Z,46.99
2023-04-03T12:09:35.877Z,47.11
2023-04-03T12:12:49.095Z,48.15
2023-04-03T12:15:20.919Z,46.31
2023-04-03T12:17:48.669Z,47.01
2023-04-03T12:20:48.249Z,46.59
2023-04-03T12:23:24.507Z,47.21
2023-04-03T12:25:52.746Z,47.53
2023-04-03T12:28:21.343Z,46.53
2023-04-03T12:30:48.802Z,47.46
2023-04-03T12:33:37.768Z,47.37
2023-04-03T12:36:13.806Z,48.88
2023-04-03T12:39:03.615Z,47.51
2023-04-03T12:41:52.855Z,47.10
2023-04-03T12:44:35.280Z,48.23
2023-04-03T12:47:03.910Z,46.86
2023-04-03T12:49:31.179Z,47.28
2023-04-03T12:51:58.457Z,45.82
2023-04-03T12:54:40.840Z,47.17
2023-04-03T12:57:20.399Z,47.83
2023-04-03T12:59:48.685Z,45.42
2023-04-03T13:02:34.842Z,46.45
2023-04-03T13:05:08.295Z,46.83
2023-04-03T13:07:39.813Z,47.19
2023-04-03T13:10:07.832Z,47.05
2023-04-03T13:12:55.565Z,48.33
2023-04-03T13:15:30.564Z,46.48
2023-04-03T13:17:58.233Z,46.69
2023-04-03T13:20:34.051Z,46.22
2023-04-03T13:23:06.088Z,46.84
2023-04-03T13:25:35.840Z,45.41
2023-04-03T13:28:13.497Z,46.41
2023-04-03T13:30:56.034Z,45.32
2023-04-03T13:33:27.777Z,45.17
2023-04-03T13:36:05.436Z,47.93
2023-04-03T13:38:34.819Z,44.36
2023-04-03T13:41:06.374Z,46.38
2023-04-03T13:43:36.596Z,45.91
2023-04-03T13:46:12.782Z,45.97
2023-04-03T13:48:52.241Z,46.21
2023-04-03T13:51:24.016Z,45.42
2023-04-03T13:53:56.055Z,45.75
2023-04-03T13:56:39.635Z,45.76
2023-04-03T13:59:12.493Z,46.02
2023-04-03T14:02:17.466Z,44.68
2023-04-03T14:04:45.046Z,44.68
2023-04-03T14:07:16.991Z,45.66
2023-04-03T14:09:44.546Z,46.32
2023-04-03T14:12:37.232Z,44.63
2023-04-03T14:15:16.320Z,45.08
2023-04-03T14:17:43.693Z,44.60
2023-04-03T14:20:19.694Z,45.18
2023-04-03T14:22:47.286Z,46.99
2023-04-03T14:25:14.735Z,45.40
2023-04-03T14:27:45.092Z,45.64
2023-04-03T14:30:18.695Z,45.97
2023-04-03T14:32:46.518Z,46.08
2023-04-03T14:35:14.285Z,47.15
2023-04-03T14:37:41.840Z,46.68
2023-04-03T14:40:12.750Z,45.67
2023-04-03T14:42:39.844Z,45.34
2023-04-03T14:45:10.529Z,46.51
2023-04-03T14:47:42.679Z,45.41
2023-04-03T14:50:15.681Z,46.22
2023-04-03T14:52:44.024Z,45.77
2023-04-03T14:55:21.265Z,46.54
2023-04-03T14:57:49.645Z,46.39
2023-04-03T15:00:19.483Z,45.89
2023-04-03T15:02:48.896Z,44.83
2023-04-03T15:05:16.979Z,45.87
2023-04-03T15:07:50.390Z,45.24
2023-04-03T15:10:26.624Z,44.97
2023-04-03T15:12:54.450Z,45.17
2023-04-03T15:15:23.173Z,46.05
2023-04-03T15:17:55.631Z,46.29
2023-04-03T15:20:25.755Z,45.74
2023-04-03T15:22:53.162Z,45.97
2023-04-03T15:25:20.632Z,46.11
2023-04-03T15:27:48.068Z,45.16
2023-04-03T15:30:18.346Z,45.21
2023-04-03T15:32:45.642Z,45.33
2023-04-03T15:35:13.159Z,44.47
2023-04-03T15:37:40.364Z,44.57
2023-04-03T15:40:08.276Z,46.74
2023-04-03T15:42:35.825Z,45.70
2023-04-03T15:45:03.093Z,44.88
2023-04-03T15:47:30.319Z,44.89
2023-04-03T15:49:57.808Z,45.00
2023-04-03T15:52:25.183Z,45.18
2023-04-03T15:54:52.374Z,44.75
2023-04-03T15:57:20.029Z,45.38
2023-04-03T15:59:47.463Z,45.25
2023-04-03T16:02:14.799Z,44.04
2023-04-03T16:04:42.412Z,44.93
2023-04-03T16:07:09.797Z,44.83
2023-04-03T16:09:37.087Z,44.92
2023-04-03T16:12:04.835Z,45.12
2023-04-03T16:14:32.136Z,44.43
2023-04-03T16:17:00.836Z,44.89
2023-04-03T16:19:28.536Z,44.71
2023-04-03T16:21:56.047Z,44.11
2023-04-03T16:24:23.476Z,45.31
2023-04-03T16:26:51.077Z,44.59
2023-04-03T16:29:18.247Z,44.29
2023-04-03T16:31:45.666Z,44.91
2023-04-03T16:34:13.481Z,44.45
2023-04-03T16:36:40.762Z,44.42
2023-04-03T16:39:10.536Z,44.54
2023-04-03T16:41:37.998Z,44.52
2023-04-03T16:44:05.297Z,44.70
2023-04-03T16:46:32.477Z,44.35
2023-04-03T16:48:59.844Z,44.09
2023-04-03T16:51:27.243Z,44.08
2023-04-03T16:53:54.462Z,44.64
2023-04-03T16:56:23.100Z,44.49
2023-04-03T16:58:50.378Z,44.19
2023-04-03T17:01:19.495Z,43.70
2023-04-03T17:03:47.197Z,44.90
2023-04-03T17:06:18.424Z,43.47
2023-04-03T17:08:47.155Z,43.60
2023-04-03T17:11:28.127Z,43.31
2023-04-03T17:13:55.282Z,43.36
2023-04-03T17:16:23.452Z,44.07
2023-04-03T17:18:50.881Z,44.40
2023-04-03T17:21:18.201Z,43.89
2023-04-03T17:23:48.633Z,45.00
2023-04-03T17:26:15.982Z,44.43
2023-04-03T17:28:44.790Z,44.60
2023-04-03T17:31:13.380Z,45.13
2023-04-03T17:33:40.629Z,45.43
2023-04-03T17:36:08.252Z,46.73
2023-04-03T17:38:36.057Z,47.81
2023-04-03T17:41:06.227Z,47.38
2023-04-03T17:43:33.882Z,52.38
2023-04-03T17:46:07.171Z,46.38
2023-04-03T17:48:35.670Z,47.10
2023-04-03T17:51:12.065Z,50.25
2023-04-03T17:53:41.673Z,49.07
2023-04-03T17:56:10.926Z,49.37
2023-04-03T17:58:38.148Z,52.05
2023-04-03T18:01:22.479Z,49.20
2023-04-03T18:03:51.012Z,47.76
2023-04-03T18:06:19.637Z,48.95
2023-04-03T18:08:59.383Z,47.48
2023-04-03T18:11:28.135Z,45.96
2023-04-03T18:13:58.199Z,45.99
2023-04-03T18:16:26.604Z,52.00
2023-04-03T18:19:06.584Z,54.12
2023-04-03T18:21:41.983Z,53.05
2023-04-03T18:24:12.685Z,52.91
2023-04-03T18:26:41.553Z,51.37
2023-04-03T18:29:10.768Z,53.27
2023-04-03T18:31:38.547Z,52.08
2023-04-03T18:34:05.809Z,50.99
2023-04-03T18:36:33.259Z,52.23
2023-04-03T18:39:00.428Z,49.76
2023-04-03T18:41:30.128Z,51.74
2023-04-03T18:43:59.007Z,52.16
2023-04-03T18:46:26.208Z,52.94
2023-04-03T18:48:54.227Z,59.01
2023-04-03T18:51:22.033Z,53.85
2023-04-03T18:53:49.141Z,56.16
2023-04-03T18:56:16.621Z,53.74
2023-04-03T18:58:44.066Z,52.17
2023-04-03T19:01:12.029Z,52.03
2023-04-03T19:03:39.277Z,52.05
2023-04-03T19:06:07.199Z,50.78
2023-04-03T19:08:34.642Z,51.36
2023-04-03T19:11:01.857Z,44.59
2023-04-03T19:13:29.288Z,45.12
2023-04-03T19:15:59.069Z,45.26
2023-04-03T19:18:27.043Z,47.01
2023-04-03T19:20:56.429Z,45.81
2023-04-03T19:23:24.477Z,47.44
2023-04-03T19:25:59.470Z,46.67
2023-04-03T19:28:27.200Z,46.73
2023-04-03T19:30:54.472Z,45.51
2023-04-03T19:33:21.588Z,45.82
2023-04-03T19:35:48.992Z,45.33
2023-04-03T19:38:16.492Z,45.77
2023-04-03T19:40:44.056Z,44.41
2023-04-03T19:43:12.593Z,44.30
2023-04-03T19:45:40.954Z,44.35
2023-04-03T19:48:08.584Z,44.66
2023-04-03T19:50:36.055Z,43.20
2023-04-03T19:53:03.238Z,43.74
2023-04-03T19:55:31.587Z,43.07
2023-04-03T19:57:59.854Z,45.33
2023-04-03T20:00:28.651Z,44.29
2023-04-03T20:02:56.809Z,42.69
2023-04-03T20:05:24.714Z,41.96
2023-04-03T20:07:52.616Z,47.03
2023-04-03T20:10:20.362Z,44.17
2023-04-03T20:12:47.879Z,42.60
2023-04-03T20:15:15.005Z,42.05
2023-04-03T20:17:42.460Z,44.31
2023-04-03T20:20:10.244Z,44.85
2023-04-03T20:22:39.003Z,44.23
2023-04-03T20:25:09.588Z,41.07
2023-04-03T20:27:36.824Z,41.84
2023-04-03T20:30:08.710Z,42.26
2023-04-03T20:32:36.155Z,43.69
2023-04-03T20:35:04.693Z,52.48
2023-04-03T20:37:32.513Z,44.59
2023-04-03T20:40:00.462Z,46.01
2023-04-03T20:42:27.734Z,42.57
2023-04-03T20:44:57.285Z,43.08
2023-04-03T20:47:25.081Z,43.35
2023-04-03T20:49:53.696Z,44.09
2023-04-03T20:52:21.066Z,44.46
2023-04-03T20:54:48.492Z,44.53
2023-04-03T20:57:15.634Z,44.43
2023-04-03T20:59:43.867Z,44.42
2023-04-03T21:02:11.429Z,44.31
2023-04-03T21:04:47.184Z,49.72
2023-04-03T21:07:53.247Z,48.51
2023-04-03T21:10:59.139Z,42.48
2023-04-03T21:14:05.493Z,43.90
2023-04-03T21:16:32.866Z,42.31
2023-04-03T21:19:08.680Z,42.42
2023-04-03T21:21:39.570Z,42.89
2023-04-03T21:24:09.946Z,43.18
2023-04-03T21:26:38.691Z,42.83
2023-04-03T21:29:07.385Z,43.50
2023-04-03T21:31:47.872Z,44.32
2023-04-03T21:34:16.165Z,43.40
2023-04-03T21:36:44.676Z,44.05
2023-04-03T21:39:12.348Z,43.07
2023-04-03T21:41:39.637Z,43.75
2023-04-03T21:44:07.164Z,42.66
2023-04-03T21:46:34.487Z,49.61
2023-04-03T21:49:01.836Z,41.30
2023-04-03T21:51:29.390Z,42.15
2023-04-03T21:53:57.394Z,44.19
2023-04-03T21:56:24.657Z,42.60
2023-04-03T21:58:52.297Z,40.22
2023-04-03T22:01:20.583Z,40.89
2023-04-03T22:03:48.137Z,41.22
2023-04-03T22:06:16.426Z,41.36
2023-04-03T22:08:43.857Z,42.01
2023-04-03T22:11:15.670Z,42.97
2023-04-03T22:13:43.828Z,42.18
2023-04-03T22:16:12.704Z,43.70
2023-04-03T22:18:39.867Z,43.55
2023-04-03T22:21:09.833Z,40.82
2023-04-03T22:23:37.809Z,40.70
2023-04-03T22:26:07.435Z,40.37
2023-04-03T22:28:39.250Z,40.72
2023-04-03T22:31:08.103Z,40.35
2023-04-03T22:33:39.291Z,41.15
2023-04-03T22:36:08.783Z,41.22
2023-04-03T22:38:37.073Z,42.06
2023-04-03T22:41:06.457Z,42.28
2023-04-03T22:43:36.457Z,41.46
2023-04-03T22:46:06.624Z,41.26
2023-04-03T22:48:34.651Z,41.94
2023-04-03T22:51:07.222Z,42.80
2023-04-03T22:53:35.680Z,40.64
2023-04-03T22:56:11.085Z,41.64
2023-04-03T22:58:39.106Z,50.26
2023-04-03T23:01:11.354Z,46.27
2023-04-03T23:03:40.370Z,42.36
2023-04-03T23:06:08.808Z,42.50
2023-04-03T23:08:38.971Z,42.02
2023-04-03T23:11:09.886Z,47.80
2023-04-03T23:13:37.462Z,41.88
2023-04-03T23:16:05.235Z,41.85
2023-04-03T23:18:33.081Z,42.64
2023-04-03T23:21:01.789Z,43.91
2023-04-03T23:23:29.124Z,43.62
2023-04-03T23:25:59.133Z,43.71
2023-04-03T23:28:27.735Z,43.04
2023-04-03T23:31:02.834Z,43.22
2023-04-03T23:33:31.776Z,43.08
2023-04-03T23:36:00.778Z,43.02
2023-04-03T23:38:28.304Z,43.70
2023-04-03T23:40:55.891Z,43.22
2023-04-03T23:43:23.071Z,43.69
2023-04-03T23:45:50.578Z,43.01
2023-04-03T23:48:18.053Z,43.47
2023-04-03T23:50:45.170Z,44.47
2023-04-03T23:53:15.140Z,43.58
2023-04-03T23:55:42.902Z,43.26
2023-04-03T23:58:10.904Z,43.60
